createdAt,value
2022-09-23T00:01:04.868Z,19.21
2022-09-23T00:06:11.584Z,19.42
2022-09-23T00:11:15.006Z,19.37
2022-09-23T00:16:19.082Z,19.17
2022-09-23T00:21:20.828Z,18.85
2022-09-23T00:26:22.827Z,18.94
2022-09-23T00:31:25.400Z,19.10
2022-09-23T00:36:27.323Z,19.26
2022-09-23T00:41:28.800Z,18.98
2022-09-23T00:46:34.390Z,18.61
2022-09-23T00:51:38.663Z,19.31
2022-09-23T00:56:40.148Z,19.26
2022-09-23T01:01:41.657Z,19.08
2022-09-23T01:06:43.131Z,19.05
2022-09-23T01:12:11.952Z,19.33
2022-09-23T01:17:37.407Z,19.26
2022-09-23T01:22:51.584Z,19.01
2022-09-23T01:28:20.819Z,18.81
2022-09-23T01:33:27.123Z,18.87
2022-09-23T01:38:51.330Z,19.33
2022-09-23T01:44:18.530Z,19.35
2022-09-23T01:49:38.813Z,19.25
2022-09-23T01:54:47.743Z,19.25
2022-09-23T01:59:56.061Z,18.90
2022-09-23T02:05:08.326Z,19.05
2022-09-23T02:10:17.264Z,19.34
2022-09-23T02:15:21.205Z,19.26
2022-09-23T02:20:25.121Z,19.05
2022-09-23T02:25:39.302Z,19.25
2022-09-23T02:30:49.070Z,19.08
2022-09-23T02:36:26.051Z,19.07
2022-09-23T02:41:32.475Z,19.27
2022-09-23T02:46:34.240Z,19.18
2022-09-23T02:51:38.142Z,19.07
2022-09-23T02:56:40.053Z,19.26
2022-09-23T03:02:14.088Z,19.04
2022-09-23T03:07:23.470Z,18.98
2022-09-23T03:12:41.835Z,19.23
2022-09-23T03:18:02.621Z,19.05
2022-09-23T03:23:07.457Z,19.09
2022-09-23T03:28:08.922Z,19.29
2022-09-23T03:33:12.446Z,18.97
2022-09-23T03:38:16.016Z,19.05
2022-09-23T03:43:17.492Z,19.09
2022-09-23T03:48:18.970Z,19.26
2022-09-23T03:53:21.158Z,19.06
2022-09-23T03:58:22.629Z,18.78
2022-09-23T04:03:26.145Z,18.53
2022-09-23T04:08:27.618Z,18.79
2022-09-23T04:13:29.413Z,18.81
2022-09-23T04:18:31.354Z,18.30
2022-09-23T04:23:32.815Z,18.85
2022-09-23T04:28:34.407Z,18.70
2022-09-23T04:33:36.107Z,18.81
2022-09-23T04:38:37.581Z,18.85
2022-09-23T04:43:39.220Z,18.69
2022-09-23T04:48:41.578Z,18.99
2022-09-23T04:53:43.861Z,18.75
2022-09-23T04:58:46.040Z,18.71
2022-09-23T05:03:47.528Z,18.84
2022-09-23T05:08:53.834Z,18.75
2022-09-23T05:13:55.341Z,18.71
2022-09-23T05:18:57.554Z,18.47
2022-09-23T05:24:00.569Z,18.33
2022-09-23T05:29:02.129Z,18.20
2022-09-23T05:34:04.651Z,18.61
2022-09-23T05:39:07.080Z,18.82
2022-09-23T05:44:08.896Z,18.65
2022-09-23T05:49:10.552Z,18.53
2022-09-23T05:54:12.323Z,18.70
2022-09-23T05:59:13.799Z,18.66
2022-09-23T06:04:18.903Z,18.61
2022-09-23T06:09:20.453Z,18.76
2022-09-23T06:14:21.951Z,18.74
2022-09-23T06:19:23.475Z,18.85
2022-09-23T06:24:30.125Z,18.64
2022-09-23T06:29:33.133Z,18.43
2022-09-23T06:34:46.127Z,18.70
2022-09-23T06:39:50.529Z,18.90
2022-09-23T06:44:52.042Z,18.87
2022-09-23T06:49:53.509Z,18.47
2022-09-23T06:54:55.773Z,18.93
2022-09-23T06:59:59.096Z,18.93
2022-09-23T07:05:00.556Z,18.88
2022-09-23T07:10:02.092Z,18.85
2022-09-23T07:15:03.828Z,18.94
2022-09-23T07:20:05.604Z,18.98
2022-09-23T07:25:07.330Z,18.81
2022-09-23T07:30:17.929Z,19.10
2022-09-23T07:35:20.603Z,19.11
2022-09-23T07:40:22.159Z,19.29
2022-09-23T07:45:23.684Z,19.54
2022-09-23T07:50:25.182Z,19.73
2022-09-23T07:55:26.662Z,19.57
2022-09-23T08:00:28.137Z,19.70
2022-09-23T08:05:29.606Z,19.78
2022-09-23T08:10:31.081Z,19.98
2022-09-23T08:15:32.649Z,19.56
2022-09-23T08:20:47.746Z,20.03
2022-09-23T08:25:49.693Z,20.17
2022-09-23T08:30:51.186Z,20.26
2022-09-23T08:35:52.837Z,20.05
2022-09-23T08:41:01.425Z,20.42
2022-09-23T08:46:03.664Z,20.52
2022-09-23T08:51:06.554Z,20.59
2022-09-23T08:56:10.951Z,20.67
2022-09-23T09:01:54.231Z,20.80
2022-09-23T09:07:24.460Z,20.68
2022-09-23T09:12:30.915Z,20.48
2022-09-23T09:17:48.182Z,20.76
2022-09-23T09:22:49.542Z,20.59
2022-09-23T09:27:51.716Z,20.83
2022-09-23T09:33:02.394Z,20.92
2022-09-23T09:38:03.951Z,21.24
2022-09-23T09:43:05.498Z,21.39
2022-09-23T09:48:20.772Z,21.50
2022-09-23T09:53:35.607Z,21.46
2022-09-23T09:58:55.603Z,21.68
2022-09-23T10:03:59.509Z,21.58
2022-09-23T10:09:01.566Z,21.77
2022-09-23T10:14:19.519Z,21.24
2022-09-23T10:19:29.887Z,21.31
2022-09-23T10:24:32.632Z,21.24
2022-09-23T10:29:46.507Z,21.48
2022-09-23T10:34:53.933Z,21.40
2022-09-23T10:40:13.957Z,21.62
2022-09-23T10:45:52.475Z,21.66
2022-09-23T10:50:54.114Z,21.59
2022-09-23T10:56:08.571Z,21.72
2022-09-23T11:01:19.764Z,21.86
2022-09-23T11:07:07.255Z,21.65
2022-09-23T11:12:21.320Z,21.80
2022-09-23T11:17:41.609Z,21.81
2022-09-23T11:23:20.154Z,21.70
2022-09-23T11:28:40.326Z,21.65
2022-09-23T11:34:12.504Z,21.28
2022-09-23T11:39:28.194Z,21.77
2022-09-23T11:44:32.502Z,22.06
2022-09-23T11:49:40.213Z,21.94
2022-09-23T11:55:22.224Z,22.09
2022-09-23T12:00:26.637Z,22.13
2022-09-23T12:05:31.538Z,21.78
2022-09-23T12:10:51.659Z,22.05
2022-09-23T12:16:21.677Z,22.14
2022-09-23T12:22:08.099Z,22.41
2022-09-23T12:27:12.944Z,22.19
2022-09-23T12:32:18.407Z,22.61
2022-09-23T12:37:27.191Z,22.62
2022-09-23T12:42:31.120Z,22.72
2022-09-23T12:47:39.273Z,22.79
2022-09-23T12:52:40.771Z,22.19
2022-09-23T12:57:42.576Z,22.44
2022-09-23T13:02:46.768Z,21.82
2022-09-23T13:07:48.838Z,22.37
2022-09-23T13:12:50.320Z,22.28
2022-09-23T13:17:51.809Z,22.44
2022-09-23T13:22:53.123Z,22.73
2022-09-23T13:27:55.782Z,22.67
2022-09-23T13:33:05.323Z,22.78
2022-09-23T13:38:20.534Z,22.59
2022-09-23T13:43:25.157Z,22.56
2022-09-23T13:48:28.086Z,22.73
2022-09-23T13:53:30.194Z,22.26
2022-09-23T13:58:32.118Z,22.47
2022-09-23T14:03:37.552Z,22.12
2022-09-23T14:08:40.144Z,22.67
2022-09-23T14:13:42.166Z,22.74
2022-09-23T14:18:46.881Z,22.76
2022-09-23T14:23:48.936Z,22.85
2022-09-23T14:28:50.444Z,22.82
2022-09-23T14:33:51.922Z,22.78
2022-09-23T14:38:53.409Z,22.74
2022-09-23T14:43:59.108Z,22.78
2022-09-23T14:49:12.368Z,22.40
2022-09-23T14:54:25.499Z,22.52
2022-09-23T14:59:34.699Z,22.29
2022-09-23T15:04:36.389Z,22.23
2022-09-23T15:09:39.263Z,22.26
2022-09-23T15:14:42.967Z,22.26
2022-09-23T15:19:44.624Z,22.16
2022-09-23T15:24:46.235Z,22.06
2022-09-23T15:29:48.318Z,21.75
2022-09-23T15:34:50.332Z,21.73
2022-09-23T15:39:51.808Z,21.55
2022-09-23T15:44:53.295Z,21.63
2022-09-23T15:49:54.803Z,21.45
2022-09-23T15:54:56.284Z,21.48
2022-09-23T15:59:58.451Z,21.50
2022-09-23T16:05:05.762Z,21.70
2022-09-23T16:10:07.661Z,21.26
2022-09-23T16:15:13.330Z,21.32
2022-09-23T16:20:17.847Z,21.42
2022-09-23T16:25:19.834Z,21.44
2022-09-23T16:30:22.981Z,21.53
2022-09-23T16:35:27.771Z,21.28
2022-09-23T16:40:29.329Z,21.61
2022-09-23T16:45:31.111Z,21.37
2022-09-23T16:50:33.450Z,21.62
2022-09-23T16:55:35.181Z,21.64
2022-09-23T17:00:55.070Z,21.63
2022-09-23T17:05:56.592Z,21.70
2022-09-23T17:10:58.611Z,21.64
2022-09-23T17:16:00.552Z,21.61
2022-09-23T17:21:04.484Z,21.54
2022-09-23T17:26:09.539Z,21.55
2022-09-23T17:31:11.064Z,21.37
2022-09-23T17:36:13.141Z,21.48
2022-09-23T17:41:14.492Z,21.51
2022-09-23T17:46:18.606Z,21.51
2022-09-23T17:51:20.398Z,21.30
2022-09-23T17:56:24.923Z,21.34
2022-09-23T18:01:26.665Z,21.33
2022-09-23T18:06:29.283Z,21.35
2022-09-23T18:11:32.711Z,21.35
2022-09-23T18:16:35.542Z,21.46
2022-09-23T18:21:37.948Z,21.44
2022-09-23T18:26:39.492Z,21.38
2022-09-23T18:31:41.178Z,21.31
2022-09-23T18:36:43.122Z,21.18
2022-09-23T18:41:44.600Z,21.19
2022-09-23T18:46:46.075Z,21.20
2022-09-23T18:51:55.614Z,21.21
2022-09-23T18:56:57.568Z,21.26
2022-09-23T19:01:59.167Z,21.07
2022-09-23T19:07:00.715Z,21.04
2022-09-23T19:12:03.269Z,21.00
2022-09-23T19:17:05.081Z,20.70
2022-09-23T19:22:06.993Z,20.98
2022-09-23T19:27:08.488Z,20.86
2022-09-23T19:32:10.533Z,20.75
2022-09-23T19:37:12.225Z,20.78
2022-09-23T19:42:13.713Z,20.87
2022-09-23T19:47:17.411Z,20.92
2022-09-23T19:52:18.998Z,20.86
2022-09-23T19:57:20.479Z,20.60
2022-09-23T20:02:22.034Z,20.52
2022-09-23T20:07:23.575Z,20.64
2022-09-23T20:12:25.051Z,20.60
2022-09-23T20:17:26.573Z,20.54
2022-09-23T20:22:33.174Z,20.33
2022-09-23T20:27:35.066Z,20.25
2022-09-23T20:32:36.936Z,20.26
2022-09-23T20:37:38.412Z,20.31
2022-09-23T20:42:39.888Z,20.28
2022-09-23T20:47:41.431Z,20.32
2022-09-23T20:52:42.936Z,20.35
2022-09-23T20:57:45.171Z,20.24
2022-09-23T21:02:46.527Z,20.15
2022-09-23T21:07:48.035Z,20.13
2022-09-23T21:12:50.418Z,20.13
2022-09-23T21:17:52.220Z,20.13
2022-09-23T21:22:54.871Z,20.12
2022-09-23T21:27:56.362Z,19.84
2022-09-23T21:32:59.440Z,19.87
2022-09-23T21:38:00.962Z,19.83
2022-09-23T21:43:02.439Z,19.89
2022-09-23T21:48:04.530Z,19.96
2022-09-23T21:53:07.127Z,19.86
2022-09-23T21:58:08.605Z,19.83
2022-09-23T22:03:10.083Z,19.61
2022-09-23T22:08:11.624Z,19.80
2022-09-23T22:13:13.249Z,19.69
2022-09-23T22:18:14.739Z,19.67
2022-09-23T22:23:16.228Z,19.63
2022-09-23T22:28:36.397Z,19.33
2022-09-23T22:33:37.889Z,19.18
2022-09-23T22:38:41.494Z,19.25
2022-09-23T22:43:42.967Z,19.28
2022-09-23T22:48:44.452Z,19.08
2022-09-23T22:53:45.988Z,19.34
2022-09-23T22:58:47.749Z,19.25
2022-09-23T23:03:52.851Z,19.12
2022-09-23T23:08:59.500Z,19.30
2022-09-23T23:14:02.302Z,19.32
2022-09-23T23:19:09.942Z,19.32
2022-09-23T23:24:19.268Z,19.34
2022-09-23T23:29:21.158Z,19.20
2022-09-23T23:34:22.996Z,19.08
2022-09-23T23:39:24.918Z,19.05
2022-09-23T23:44:26.580Z,19.02
2022-09-23T23:49:28.684Z,19.17
2022-09-23T23:54:30.184Z,19.12
2022-09-23T23:59:31.894Z,19.15
